createdAt,value
2018-01-26T00:00:40.122Z,7.50
2018-01-26T00:03:13.885Z,7.50
2018-01-26T00:05:47.613Z,7.50
2018-01-26T00:08:21.415Z,7.50
2018-01-26T00:10:54.995Z,7.50
2018-01-26T00:13:28.695Z,7.50
2018-01-26T00:16:02.438Z,7.50
2018-01-26T00:18:36.118Z,7.50
2018-01-26T00:21:10.840Z,7.50
2018-01-26T00:23:45.860Z,7.50
2018-01-26T00:26:19.537Z,7.50
2018-01-26T00:28:53.348Z,7.50
2018-01-26T00:31:28.081Z,7.50
2018-01-26T00:34:02.394Z,7.50
2018-01-26T00:36:37.091Z,7.50
2018-01-26T00:39:12.228Z,7.50
2018-01-26T00:41:46.759Z,7.50
2018-01-26T00:44:22.347Z,7.50
2018-01-26T00:46:56.167Z,7.50
2018-01-26T00:49:30.205Z,7.50
2018-01-26T00:52:03.787Z,7.50
2018-01-26T00:54:37.556Z,7.50
2018-01-26T00:57:13.007Z,7.50
2018-01-26T00:59:46.682Z,7.50
2018-01-26T01:02:21.954Z,7.50
2018-01-26T01:04:56.417Z,7.50
2018-01-26T01:07:30.110Z,7.50
2018-01-26T01:10:03.818Z,7.50
2018-01-26T01:12:37.440Z,7.50
2018-01-26T01:15:11.274Z,7.50
2018-01-26T01:17:44.933Z,7.50
2018-01-26T01:20:18.600Z,7.50
2018-01-26T01:22:52.213Z,7.50
2018-01-26T01:25:26.800Z,7.50
2018-01-26T01:28:00.530Z,7.50
2018-01-26T01:30:34.320Z,7.50
2018-01-26T01:33:08.043Z,7.40
2018-01-26T01:35:42.699Z,7.40
2018-01-26T01:38:16.608Z,7.40
2018-01-26T01:40:50.913Z,7.40
2018-01-26T01:43:25.636Z,7.40
2018-01-26T01:46:00.402Z,7.40
2018-01-26T01:48:35.189Z,7.40
2018-01-26T01:51:09.376Z,7.40
2018-01-26T01:53:43.016Z,7.40
2018-01-26T01:56:16.756Z,7.40
2018-01-26T01:58:50.446Z,7.40
2018-01-26T02:01:24.664Z,7.40
2018-01-26T02:03:59.290Z,7.40
2018-01-26T02:06:33.432Z,7.40
2018-01-26T02:09:08.844Z,7.40
2018-01-26T02:11:42.565Z,7.40
2018-01-26T02:14:16.352Z,7.40
2018-01-26T02:16:50.963Z,7.30
2018-01-26T02:19:24.779Z,7.30
2018-01-26T02:21:58.577Z,7.40
2018-01-26T02:24:49.712Z,7.30
2018-01-26T02:27:25.408Z,7.40
2018-01-26T02:30:04.288Z,7.40
2018-01-26T02:32:38.125Z,7.30
2018-01-26T02:35:13.352Z,7.30
2018-01-26T02:37:47.079Z,7.30
2018-01-26T02:40:21.653Z,7.30
2018-01-26T02:42:55.373Z,7.30
2018-01-26T02:45:31.455Z,7.30
2018-01-26T02:48:07.379Z,7.30
2018-01-26T02:50:41.964Z,7.30
2018-01-26T02:53:16.638Z,7.30
2018-01-26T02:55:50.494Z,7.30
2018-01-26T02:58:24.631Z,7.20
2018-01-26T03:00:58.621Z,7.20
2018-01-26T03:03:32.554Z,7.30
2018-01-26T03:06:08.228Z,7.20
2018-01-26T03:08:43.865Z,7.20
2018-01-26T03:11:18.947Z,7.30
2018-01-26T03:13:52.586Z,7.20
2018-01-26T03:16:26.529Z,7.20
2018-01-26T03:19:00.302Z,7.20
2018-01-26T03:21:34.216Z,7.20
2018-01-26T03:24:08.051Z,7.20
2018-01-26T03:26:41.853Z,7.20
2018-01-26T03:29:15.679Z,7.20
2018-01-26T03:31:50.185Z,7.20
2018-01-26T03:34:24.896Z,7.20
2018-01-26T03:36:58.960Z,7.20
2018-01-26T03:39:33.807Z,7.10
2018-01-26T03:42:07.514Z,7.10
2018-01-26T03:44:41.966Z,7.10
2018-01-26T03:47:15.731Z,7.10
2018-01-26T03:49:49.864Z,7.10
2018-01-26T03:52:29.189Z,7.10
2018-01-26T03:55:04.027Z,7.10
2018-01-26T03:57:39.469Z,7.10
2018-01-26T04:00:15.600Z,7.00
2018-01-26T04:02:51.333Z,7.00
2018-01-26T04:05:27.262Z,7.00
2018-01-26T04:08:03.212Z,6.90
2018-01-26T04:10:36.913Z,6.90
2018-01-26T04:13:11.656Z,6.80
2018-01-26T04:15:45.421Z,6.80
2018-01-26T04:18:20.125Z,6.80
2018-01-26T04:20:53.824Z,6.80
2018-01-26T04:23:27.534Z,6.80
2018-01-26T04:26:01.344Z,6.70
2018-01-26T04:28:35.177Z,6.70
2018-01-26T04:31:09.623Z,6.60
2018-01-26T04:33:44.565Z,6.60
2018-01-26T04:36:18.562Z,6.60
2018-01-26T04:38:52.908Z,6.60
2018-01-26T04:41:27.755Z,6.50
2018-01-26T04:44:01.607Z,6.50
2018-01-26T04:46:35.685Z,6.50
2018-01-26T04:49:09.490Z,6.50
2018-01-26T04:51:43.316Z,6.50
2018-01-26T04:54:18.075Z,6.40
2018-01-26T04:56:52.579Z,6.30
2018-01-26T05:02:06.024Z,6.30
2018-01-26T05:04:40.650Z,6.20
2018-01-26T05:07:15.615Z,6.10
2018-01-26T05:09:49.456Z,6.20
2018-01-26T05:12:23.901Z,6.20
2018-01-26T05:14:58.578Z,6.20
2018-01-26T05:17:32.411Z,6.20
2018-01-26T05:20:07.838Z,6.10
2018-01-26T05:22:41.628Z,6.10
2018-01-26T05:25:16.202Z,6.10
2018-01-26T05:27:50.707Z,6.10
2018-01-26T05:30:24.520Z,6.10
2018-01-26T05:32:58.237Z,6.00
2018-01-26T05:35:32.221Z,6.10
2018-01-26T05:38:06.242Z,6.10
2018-01-26T05:40:41.908Z,6.10
2018-01-26T05:43:18.813Z,6.10
2018-01-26T05:45:55.592Z,6.10
2018-01-26T05:48:29.828Z,6.20
2018-01-26T05:51:04.098Z,6.20
2018-01-26T05:53:38.793Z,6.20
2018-01-26T05:56:13.433Z,6.20
2018-01-26T05:58:49.088Z,6.30
2018-01-26T06:01:23.986Z,6.20
2018-01-26T06:03:57.853Z,6.20
2018-01-26T06:06:32.681Z,6.20
2018-01-26T06:09:06.443Z,6.20
2018-01-26T06:11:40.341Z,6.20
2018-01-26T06:14:17.446Z,6.20
2018-01-26T06:16:51.112Z,6.20
2018-01-26T06:19:24.844Z,6.30
2018-01-26T06:24:41.204Z,6.20
2018-01-26T06:30:38.380Z,6.10
2018-01-26T06:33:19.320Z,6.10
2018-01-26T06:35:53.173Z,6.10
2018-01-26T06:38:28.577Z,6.10
2018-01-26T06:41:02.376Z,6.10
2018-01-26T06:43:36.015Z,6.10
2018-01-26T06:46:10.448Z,6.10
2018-01-26T06:48:44.216Z,6.00
2018-01-26T06:51:17.998Z,6.00
2018-01-26T06:53:51.718Z,6.00
2018-01-26T06:56:26.502Z,6.00
2018-01-26T06:59:00.864Z,6.00
2018-01-26T07:01:35.407Z,6.00
2018-01-26T07:04:09.289Z,5.90
2018-01-26T07:06:44.041Z,5.90
2018-01-26T07:09:17.814Z,5.80
2018-01-26T07:11:51.609Z,5.80
2018-01-26T07:14:25.551Z,5.80
2018-01-26T07:16:59.873Z,5.70
2018-01-26T07:19:33.556Z,5.70
2018-01-26T07:22:08.376Z,5.50
2018-01-26T07:24:42.743Z,5.50
2018-01-26T07:27:16.435Z,5.50
2018-01-26T07:29:50.995Z,5.50
2018-01-26T07:32:24.696Z,5.60
2018-01-26T07:34:59.382Z,5.60
2018-01-26T07:37:33.200Z,5.60
2018-01-26T07:40:08.560Z,5.60
2018-01-26T07:42:43.229Z,5.60
2018-01-26T07:45:16.855Z,5.60
2018-01-26T07:47:50.648Z,5.70
2018-01-26T07:50:25.288Z,5.70
2018-01-26T07:52:59.093Z,5.70
2018-01-26T07:55:34.054Z,5.80
2018-01-26T07:58:07.859Z,5.90
2018-01-26T08:00:42.686Z,5.90
2018-01-26T08:03:17.100Z,6.00
2018-01-26T08:05:51.498Z,6.00
2018-01-26T08:08:25.324Z,6.00
2018-01-26T08:10:59.056Z,6.00
2018-01-26T08:13:33.770Z,6.10
2018-01-26T08:16:09.676Z,6.20
2018-01-26T08:18:44.401Z,6.20
2018-01-26T08:21:19.479Z,6.30
2018-01-26T08:23:53.309Z,6.20
2018-01-26T08:26:27.120Z,6.40
2018-01-26T08:29:00.791Z,6.50
2018-01-26T08:31:34.546Z,6.60
2018-01-26T08:34:08.318Z,6.70
2018-01-26T08:36:43.163Z,6.80
2018-01-26T08:39:16.884Z,6.80
2018-01-26T08:41:51.776Z,6.90
2018-01-26T08:44:26.346Z,7.00
2018-01-26T08:47:00.041Z,7.00
2018-01-26T08:49:34.932Z,7.10
2018-01-26T08:52:09.456Z,7.10
2018-01-26T08:54:45.160Z,7.20
2018-01-26T08:57:19.556Z,7.10
2018-01-26T08:59:53.993Z,7.10
2018-01-26T09:02:28.482Z,7.20
2018-01-26T09:05:03.096Z,7.20
2018-01-26T09:07:36.868Z,7.30
2018-01-26T09:10:12.379Z,7.50
2018-01-26T09:12:46.964Z,7.50
2018-01-26T09:15:22.142Z,7.60
2018-01-26T09:17:56.992Z,7.60
2018-01-26T09:20:33.269Z,7.60
2018-01-26T09:23:07.045Z,7.60
2018-01-26T09:25:41.672Z,7.80
2018-01-26T09:30:56.691Z,8.00
2018-01-26T09:33:30.896Z,8.20
2018-01-26T09:36:04.568Z,8.30
2018-01-26T09:38:39.290Z,8.40
2018-01-26T09:43:50.892Z,8.70
2018-01-26T09:46:27.158Z,8.70
2018-01-26T09:49:03.551Z,8.70
2018-01-26T09:51:37.357Z,8.80
2018-01-26T09:54:13.142Z,8.70
2018-01-26T09:56:47.436Z,8.60
2018-01-26T09:59:21.317Z,8.60
2018-01-26T10:01:55.180Z,8.50
2018-01-26T10:04:30.876Z,8.40
2018-01-26T10:07:06.036Z,8.20
2018-01-26T10:09:41.744Z,8.20
2018-01-26T10:12:15.457Z,8.30
2018-01-26T10:14:54.800Z,8.40
2018-01-26T10:17:28.800Z,8.50
2018-01-26T10:20:05.491Z,8.50
2018-01-26T10:22:43.984Z,8.30
2018-01-26T10:25:21.087Z,8.40
2018-01-26T10:27:55.054Z,8.30
2018-01-26T10:33:06.943Z,8.50
2018-01-26T10:35:43.370Z,8.60
2018-01-26T10:38:18.044Z,8.60
2018-01-26T10:40:52.717Z,8.80
2018-01-26T10:46:05.085Z,8.80
2018-01-26T10:48:39.071Z,8.90
2018-01-26T10:51:13.209Z,9.00
2018-01-26T10:53:46.912Z,9.00
2018-01-26T10:56:20.609Z,9.00
2018-01-26T10:58:54.456Z,9.10
2018-01-26T11:01:28.284Z,9.20
2018-01-26T11:04:02.325Z,9.20
2018-01-26T11:06:37.152Z,9.00
2018-01-26T11:09:11.984Z,8.90
2018-01-26T11:11:46.453Z,9.00
2018-01-26T11:14:20.229Z,8.90
2018-01-26T11:16:55.557Z,9.20
2018-01-26T11:19:30.099Z,9.20
2018-01-26T11:22:04.588Z,9.10
2018-01-26T11:24:38.837Z,9.20
2018-01-26T11:27:12.775Z,9.10
2018-01-26T11:29:46.453Z,9.10
2018-01-26T11:32:20.324Z,9.10
2018-01-26T11:34:54.329Z,9.00
2018-01-26T11:37:28.035Z,9.10
2018-01-26T11:40:03.587Z,9.10
2018-01-26T11:42:39.285Z,9.10
2018-01-26T11:45:13.015Z,9.20
2018-01-26T11:47:46.699Z,9.20
2018-01-26T11:50:21.908Z,9.20
2018-01-26T11:52:56.879Z,9.20
2018-01-26T11:55:30.676Z,9.10
2018-01-26T11:58:04.773Z,9.00
2018-01-26T12:00:47.308Z,8.90
2018-01-26T12:03:21.705Z,8.90
2018-01-26T12:05:58.004Z,8.90
2018-01-26T12:08:31.795Z,9.00
2018-01-26T12:11:05.631Z,9.10
2018-01-26T12:13:40.095Z,8.80
2018-01-26T12:16:13.707Z,8.80
2018-01-26T12:18:48.129Z,8.60
2018-01-26T12:21:23.184Z,8.50
2018-01-26T12:23:58.832Z,8.50
2018-01-26T12:26:33.251Z,8.60
2018-01-26T12:29:07.253Z,8.60
2018-01-26T12:31:41.057Z,8.70
2018-01-26T12:34:14.888Z,8.70
2018-01-26T12:36:48.644Z,8.80
2018-01-26T12:39:22.436Z,8.80
2018-01-26T12:41:56.230Z,8.80
2018-01-26T12:44:30.019Z,8.80
2018-01-26T12:47:04.799Z,8.70
2018-01-26T12:49:39.373Z,8.70
2018-01-26T12:52:13.778Z,8.70
2018-01-26T12:54:48.264Z,8.70
2018-01-26T12:57:22.881Z,8.70
2018-01-26T12:59:57.013Z,8.70
2018-01-26T13:02:31.482Z,8.80
2018-01-26T13:05:11.320Z,8.70
2018-01-26T13:07:45.306Z,8.60
2018-01-26T13:10:19.156Z,8.60
2018-01-26T13:12:52.949Z,8.50
2018-01-26T13:15:27.267Z,8.50
2018-01-26T13:18:04.723Z,8.70
2018-01-26T13:20:38.453Z,8.70
2018-01-26T13:23:12.224Z,8.70
2018-01-26T13:25:46.738Z,8.80
2018-01-26T13:28:22.977Z,8.80
2018-01-26T13:30:59.184Z,8.80
2018-01-26T13:33:33.856Z,8.80
2018-01-26T13:36:08.943Z,8.80
2018-01-26T13:38:43.395Z,8.80
2018-01-26T13:41:17.889Z,8.90
2018-01-26T13:43:52.401Z,8.90
2018-01-26T13:46:26.216Z,8.90
2018-01-26T13:49:00.934Z,8.90
2018-01-26T13:51:34.678Z,8.90
2018-01-26T13:54:11.088Z,8.80
2018-01-26T13:56:44.873Z,8.80
2018-01-26T13:59:18.526Z,8.80
2018-01-26T14:01:52.341Z,8.80
2018-01-26T14:04:26.065Z,8.90
2018-01-26T14:07:02.148Z,9.00
2018-01-26T14:09:36.716Z,9.00
2018-01-26T14:12:10.496Z,9.00
2018-01-26T14:14:44.323Z,8.90
2018-01-26T14:17:18.004Z,9.00
2018-01-26T14:19:52.388Z,9.10
2018-01-26T14:22:26.213Z,9.20
2018-01-26T14:25:00.060Z,9.10
2018-01-26T14:27:33.770Z,9.00
2018-01-26T14:30:07.471Z,9.00
2018-01-26T14:32:41.148Z,9.10
2018-01-26T14:35:15.941Z,9.20
2018-01-26T14:37:49.625Z,9.30
2018-01-26T14:40:23.469Z,9.50
2018-01-26T14:42:59.419Z,9.40
2018-01-26T14:45:34.104Z,9.30
2018-01-26T14:48:08.730Z,9.30
2018-01-26T14:50:42.565Z,9.30
2018-01-26T14:53:16.999Z,9.20
2018-01-26T14:55:51.480Z,9.20
2018-01-26T14:58:26.756Z,9.20
2018-01-26T15:01:02.816Z,9.00
2018-01-26T15:03:37.608Z,9.00
2018-01-26T15:06:13.342Z,8.90
2018-01-26T15:08:47.964Z,8.70
2018-01-26T15:11:22.239Z,8.60
2018-01-26T15:13:56.767Z,8.50
2018-01-26T15:16:30.703Z,8.40
2018-01-26T15:19:04.437Z,8.40
2018-01-26T15:21:38.119Z,8.40
2018-01-26T15:24:11.988Z,8.40
2018-01-26T15:26:46.592Z,8.30
2018-01-26T15:29:20.629Z,8.30
2018-01-26T15:31:54.616Z,8.20
2018-01-26T15:34:28.448Z,8.20
2018-01-26T15:37:02.333Z,8.10
2018-01-26T15:39:36.924Z,8.00
2018-01-26T15:42:10.621Z,8.00
2018-01-26T15:44:44.967Z,8.00
2018-01-26T15:47:18.573Z,7.90
2018-01-26T15:49:53.901Z,7.80
2018-01-26T15:52:27.688Z,7.80
2018-01-26T15:55:02.253Z,7.70
2018-01-26T15:57:35.824Z,7.70
2018-01-26T16:00:11.672Z,7.70
2018-01-26T16:02:46.885Z,7.70
2018-01-26T16:05:21.428Z,7.70
2018-01-26T16:07:55.270Z,7.60
2018-01-26T16:10:29.844Z,7.50
2018-01-26T16:13:03.674Z,7.50
2018-01-26T16:15:38.294Z,7.50
2018-01-26T16:18:11.992Z,7.50
2018-01-26T16:20:45.802Z,7.50
2018-01-26T16:23:19.740Z,7.50
2018-01-26T16:25:53.452Z,7.40
2018-01-26T16:28:27.187Z,7.40
2018-01-26T16:31:01.510Z,7.30
2018-01-26T16:33:36.051Z,7.30
2018-01-26T16:36:09.777Z,7.30
2018-01-26T16:38:45.176Z,7.20
2018-01-26T16:41:19.999Z,7.20
2018-01-26T16:43:53.596Z,7.20
2018-01-26T16:46:28.000Z,7.10
2018-01-26T16:49:01.889Z,7.00
2018-01-26T16:51:35.616Z,7.00
2018-01-26T16:54:11.929Z,7.00
2018-01-26T16:56:47.425Z,7.00
2018-01-26T16:59:22.484Z,7.00
2018-01-26T17:01:56.120Z,6.90
2018-01-26T17:04:30.150Z,6.90
2018-01-26T17:07:04.564Z,6.90
2018-01-26T17:09:38.146Z,6.90
2018-01-26T17:12:12.716Z,6.90
2018-01-26T17:14:46.422Z,6.80
2018-01-26T17:17:20.139Z,6.80
2018-01-26T17:19:53.952Z,6.80
2018-01-26T17:22:28.563Z,6.70
2018-01-26T17:25:04.056Z,6.70
2018-01-26T17:27:38.748Z,6.70
2018-01-26T17:30:13.584Z,6.60
2018-01-26T17:32:47.232Z,6.70
2018-01-26T17:35:22.629Z,6.70
2018-01-26T17:37:57.976Z,6.70
2018-01-26T17:40:31.723Z,6.60
2018-01-26T17:43:05.473Z,6.60
2018-01-26T17:45:39.628Z,6.70
2018-01-26T17:48:13.328Z,6.70
2018-01-26T17:50:47.139Z,6.70
2018-01-26T17:53:21.010Z,6.60
2018-01-26T17:55:56.692Z,6.60
2018-01-26T17:58:30.407Z,6.60
2018-01-26T18:01:04.172Z,6.70
2018-01-26T18:03:38.048Z,6.60
2018-01-26T18:06:11.924Z,6.60
2018-01-26T18:08:45.848Z,6.60
2018-01-26T18:11:20.342Z,6.60
2018-01-26T18:13:54.288Z,6.60
2018-01-26T18:16:28.000Z,6.50
2018-01-26T18:19:01.760Z,6.50
2018-01-26T18:21:35.566Z,6.50
2018-01-26T18:24:09.248Z,6.40
2018-01-26T18:26:43.139Z,6.40
2018-01-26T18:29:17.913Z,6.30
2018-01-26T18:31:52.248Z,6.30
2018-01-26T18:34:26.531Z,6.20
2018-01-26T18:37:01.152Z,6.10
2018-01-26T18:39:35.742Z,6.10
2018-01-26T18:42:09.485Z,6.00
2018-01-26T18:44:43.219Z,6.00
2018-01-26T18:47:17.848Z,5.90
2018-01-26T18:49:51.507Z,5.90
2018-01-26T18:52:26.075Z,5.90
2018-01-26T18:55:01.281Z,5.80
2018-01-26T18:57:35.063Z,5.80
2018-01-26T19:00:08.788Z,5.80
2018-01-26T19:02:43.296Z,5.70
2018-01-26T19:05:17.740Z,5.70
2018-01-26T19:07:51.442Z,5.70
2018-01-26T19:10:26.111Z,5.70
2018-01-26T19:13:00.572Z,5.70
2018-01-26T19:15:34.388Z,5.90
2018-01-26T19:18:08.960Z,6.00
2018-01-26T19:20:43.533Z,6.00
2018-01-26T19:23:18.252Z,6.10
2018-01-26T19:25:52.931Z,6.10
2018-01-26T19:28:28.841Z,6.00
2018-01-26T19:31:02.892Z,6.00
2018-01-26T19:33:36.456Z,6.00
2018-01-26T19:36:13.925Z,5.90
2018-01-26T19:38:49.394Z,6.10
2018-01-26T19:41:24.985Z,6.10
2018-01-26T19:43:59.581Z,6.10
2018-01-26T19:46:37.626Z,6.20
2018-01-26T19:49:11.252Z,6.20
2018-01-26T19:51:45.025Z,6.20
2018-01-26T19:54:19.661Z,6.30
2018-01-26T19:56:53.367Z,6.30
2018-01-26T19:59:27.148Z,6.40
2018-01-26T20:02:02.624Z,6.40
2018-01-26T20:04:43.905Z,6.40
2018-01-26T20:07:29.818Z,6.30
2018-01-26T20:10:04.211Z,6.30
2018-01-26T20:12:44.775Z,6.30
2018-01-26T20:15:18.400Z,6.20
2018-01-26T20:17:54.489Z,6.20
2018-01-26T20:20:32.256Z,6.20
2018-01-26T20:23:07.432Z,6.00
2018-01-26T20:25:41.235Z,6.00
2018-01-26T20:28:16.744Z,6.00
2018-01-26T20:30:51.216Z,6.00
2018-01-26T20:33:26.147Z,6.00
2018-01-26T20:36:00.087Z,6.00
2018-01-26T20:38:33.674Z,5.90
2018-01-26T20:41:08.187Z,5.80
2018-01-26T20:43:41.967Z,5.80
2018-01-26T20:46:17.885Z,5.80
2018-01-26T20:48:52.898Z,5.80
2018-01-26T20:51:28.188Z,5.90
2018-01-26T20:54:03.439Z,5.90
2018-01-26T20:56:37.820Z,5.90
2018-01-26T20:59:12.411Z,6.00
2018-01-26T21:01:46.236Z,6.00
2018-01-26T21:04:20.891Z,6.00
2018-01-26T21:06:58.316Z,6.00
2018-01-26T21:09:32.049Z,6.00
2018-01-26T21:12:08.372Z,5.90
2018-01-26T21:14:43.456Z,5.70
2018-01-26T21:17:17.937Z,5.60
2018-01-26T21:19:51.741Z,5.70
2018-01-26T21:22:25.569Z,5.60
2018-01-26T21:25:00.599Z,5.60
2018-01-26T21:27:34.283Z,5.60
2018-01-26T21:30:08.808Z,5.80
2018-01-26T21:32:43.491Z,5.80
2018-01-26T21:35:17.150Z,5.90
2018-01-26T21:37:51.508Z,6.00
2018-01-26T21:40:25.294Z,6.10
2018-01-26T21:42:59.001Z,6.10
2018-01-26T21:45:34.364Z,6.20
2018-01-26T21:48:08.119Z,6.30
2018-01-26T21:50:42.046Z,6.30
2018-01-26T21:53:15.775Z,6.30
2018-01-26T21:55:55.247Z,6.30
2018-01-26T21:58:29.965Z,6.40
2018-01-26T22:01:03.612Z,6.40
2018-01-26T22:03:38.320Z,6.40
2018-01-26T22:06:17.984Z,6.40
2018-01-26T22:08:52.167Z,6.40
2018-01-26T22:11:25.859Z,6.40
2018-01-26T22:14:01.633Z,6.40
2018-01-26T22:16:36.267Z,6.40
2018-01-26T22:19:10.097Z,6.30
2018-01-26T22:21:43.746Z,6.30
2018-01-26T22:24:17.562Z,6.30
2018-01-26T22:26:51.160Z,6.40
2018-01-26T22:29:25.338Z,6.40
2018-01-26T22:31:59.022Z,6.40
2018-01-26T22:34:32.866Z,6.40
2018-01-26T22:37:06.674Z,6.40
2018-01-26T22:39:40.575Z,6.40
2018-01-26T22:42:15.034Z,6.40
2018-01-26T22:44:48.776Z,6.40
2018-01-26T22:47:22.500Z,6.40
2018-01-26T22:49:56.992Z,6.40
2018-01-26T22:52:30.714Z,6.30
2018-01-26T22:55:04.542Z,6.40
2018-01-26T22:57:39.796Z,6.40
2018-01-26T23:00:16.702Z,6.40
2018-01-26T23:02:51.309Z,6.40
2018-01-26T23:05:25.422Z,6.40
2018-01-26T23:07:59.044Z,6.40
2018-01-26T23:10:32.809Z,6.40
2018-01-26T23:13:07.697Z,6.40
2018-01-26T23:15:41.473Z,6.30
2018-01-26T23:18:15.143Z,6.30
2018-01-26T23:20:48.880Z,6.30
2018-01-26T23:23:22.968Z,6.30
2018-01-26T23:25:56.684Z,6.20
2018-01-26T23:28:33.850Z,6.20
2018-01-26T23:31:08.395Z,6.20
2018-01-26T23:33:42.215Z,6.20
2018-01-26T23:36:16.002Z,6.20
2018-01-26T23:38:49.776Z,6.20
2018-01-26T23:41:23.538Z,6.10
2018-01-26T23:43:58.791Z,6.20
2018-01-26T23:46:33.046Z,6.20
2018-01-26T23:49:07.640Z,6.10
2018-01-26T23:51:41.334Z,6.10
2018-01-26T23:54:15.133Z,6.20
2018-01-26T23:56:49.703Z,6.10
2018-01-26T23:59:23.407Z,6.10
